sensor_id;sensor_type;location;lat;lon;timestamp;pressure;altitude;pressure_sealevel;temperature;humidity
9899;BME280;4988;49.238;6.698;2023-04-15T00:00:06;98196.44;;;7.13;84.67
9899;BME280;4988;49.238;6.698;2023-04-15T00:02:32;98187.34;;;7.19;85.07
9899;BME280;4988;49.238;6.698;2023-04-15T00:04:57;98196.16;;;7.19;85.18
9899;BME280;4988;49.238;6.698;2023-04-15T00:07:22;98193.28;;;7.24;84.42
9899;BME280;4988;49.238;6.698;2023-04-15T00:09:48;98192.44;;;7.23;84.62
9899;BME280;4988;49.238;6.698;2023-04-15T00:12:13;98195.16;;;7.22;84.55
9899;BME280;4988;49.238;6.698;2023-04-15T00:14:38;98188.16;;;7.21;84.68
9899;BME280;4988;49.238;6.698;2023-04-15T00:17:04;98191.84;;;7.17;85.53
9899;BME280;4988;49.238;6.698;2023-04-15T00:19:30;98185.81;;;7.15;85.86
9899;BME280;4988;49.238;6.698;2023-04-15T00:21:56;98186.56;;;7.17;86.02
9899;BME280;4988;49.238;6.698;2023-04-15T00:24:22;98183.78;;;7.20;86.18
9899;BME280;4988;49.238;6.698;2023-04-15T00:26:47;98178.28;;;7.24;86.21
9899;BME280;4988;49.238;6.698;2023-04-15T00:29:13;98187.56;;;7.33;85.39
9899;BME280;4988;49.238;6.698;2023-04-15T00:31:39;98178.53;;;7.37;83.49
9899;BME280;4988;49.238;6.698;2023-04-15T00:34:05;98186.47;;;7.37;83.46
9899;BME280;4988;49.238;6.698;2023-04-15T00:36:30;98180.09;;;7.42;84.17
9899;BME280;4988;49.238;6.698;2023-04-15T00:38:56;98179.03;;;7.46;83.97
9899;BME280;4988;49.238;6.698;2023-04-15T00:41:21;98168.13;;;7.52;83.42
9899;BME280;4988;49.238;6.698;2023-04-15T00:43:47;98168.34;;;7.47;83.67
9899;BME280;4988;49.238;6.698;2023-04-15T00:46:14;98161.50;;;7.43;83.96
9899;BME280;4988;49.238;6.698;2023-04-15T00:48:42;98166.41;;;7.51;84.49
9899;BME280;4988;49.238;6.698;2023-04-15T00:51:07;98162.34;;;7.44;84.66
9899;BME280;4988;49.238;6.698;2023-04-15T00:53:33;98168.44;;;7.46;84.72
9899;BME280;4988;49.238;6.698;2023-04-15T00:55:59;98161.50;;;7.43;85.21
9899;BME280;4988;49.238;6.698;2023-04-15T00:58:25;98164.22;;;7.42;85.31
9899;BME280;4988;49.238;6.698;2023-04-15T01:00:50;98167.00;;;7.38;84.92
9899;BME280;4988;49.238;6.698;2023-04-15T01:03:18;98163.13;;;7.46;84.14
9899;BME280;4988;49.238;6.698;2023-04-15T01:05:44;98164.47;;;7.54;84.04
9899;BME280;4988;49.238;6.698;2023-04-15T01:08:10;98162.44;;;7.60;82.67
9899;BME280;4988;49.238;6.698;2023-04-15T01:10:35;98167.91;;;7.56;82.40
9899;BME280;4988;49.238;6.698;2023-04-15T01:13:01;98166.00;;;7.59;82.25
9899;BME280;4988;49.238;6.698;2023-04-15T01:15:27;98166.09;;;7.57;82.22
9899;BME280;4988;49.238;6.698;2023-04-15T01:17:53;98163.44;;;7.57;82.22
9899;BME280;4988;49.238;6.698;2023-04-15T01:20:18;98163.75;;;7.51;83.17
9899;BME280;4988;49.238;6.698;2023-04-15T01:22:44;98167.91;;;7.56;81.94
9899;BME280;4988;49.238;6.698;2023-04-15T01:25:11;98159.16;;;7.54;81.19
9899;BME280;4988;49.238;6.698;2023-04-15T01:27:38;98164.69;;;7.50;80.64
9899;BME280;4988;49.238;6.698;2023-04-15T01:30:06;98162.91;;;7.50;82.08
9899;BME280;4988;49.238;6.698;2023-04-15T01:32:32;98157.44;;;7.53;81.68
9899;BME280;4988;49.238;6.698;2023-04-15T01:34:57;98167.97;;;7.55;82.14
9899;BME280;4988;49.238;6.698;2023-04-15T01:37:23;98159.09;;;7.56;81.31
9899;BME280;4988;49.238;6.698;2023-04-15T01:39:48;98164.59;;;7.51;81.58
9899;BME280;4988;49.238;6.698;2023-04-15T01:42:14;98151.44;;;7.32;83.42
9899;BME280;4988;49.238;6.698;2023-04-15T01:44:39;98158.69;;;7.10;85.81
9899;BME280;4988;49.238;6.698;2023-04-15T01:47:04;98152.91;;;7.01;85.59
9899;BME280;4988;49.238;6.698;2023-04-15T01:49:31;98153.06;;;6.79;88.21
9899;BME280;4988;49.238;6.698;2023-04-15T01:51:56;98156.41;;;6.64;88.78
9899;BME280;4988;49.238;6.698;2023-04-15T01:54:22;98159.31;;;6.38;89.58
9899;BME280;4988;49.238;6.698;2023-04-15T01:56:47;98157.34;;;6.23;90.37
9899;BME280;4988;49.238;6.698;2023-04-15T01:59:12;98156.34;;;6.25;90.92
9899;BME280;4988;49.238;6.698;2023-04-15T02:01:38;98156.81;;;6.35;90.58
9899;BME280;4988;49.238;6.698;2023-04-15T02:04:03;98160.44;;;6.33;89.72
9899;BME280;4988;49.238;6.698;2023-04-15T02:06:29;98158.97;;;6.27;90.25
9899;BME280;4988;49.238;6.698;2023-04-15T02:08:54;98156.50;;;6.22;91.20
9899;BME280;4988;49.238;6.698;2023-04-15T02:11:19;98149.97;;;6.10;91.53
9899;BME280;4988;49.238;6.698;2023-04-15T02:13:45;98153.06;;;6.00;92.55
9899;BME280;4988;49.238;6.698;2023-04-15T02:16:17;98158.16;;;6.04;93.00
9899;BME280;4988;49.238;6.698;2023-04-15T02:18:44;98149.84;;;6.14;91.83
9899;BME280;4988;49.238;6.698;2023-04-15T02:21:10;98152.69;;;6.30;91.01
9899;BME280;4988;49.238;6.698;2023-04-15T02:23:35;98148.59;;;6.41;90.59
9899;BME280;4988;49.238;6.698;2023-04-15T02:26:00;98148.84;;;6.56;90.33
9899;BME280;4988;49.238;6.698;2023-04-15T02:28:26;98140.97;;;6.73;89.13
9899;BME280;4988;49.238;6.698;2023-04-15T02:30:51;98142.50;;;6.79;89.48
9899;BME280;4988;49.238;6.698;2023-04-15T02:33:18;98143.53;;;6.75;89.02
9899;BME280;4988;49.238;6.698;2023-04-15T02:35:43;98149.84;;;6.72;89.82
9899;BME280;4988;49.238;6.698;2023-04-15T02:38:10;98154.34;;;6.70;89.39
9899;BME280;4988;49.238;6.698;2023-04-15T02:40:36;98152.16;;;6.80;89.27
9899;BME280;4988;49.238;6.698;2023-04-15T02:43:01;98154.41;;;6.88;88.51
9899;BME280;4988;49.238;6.698;2023-04-15T02:45:27;98146.41;;;6.89;88.81
9899;BME280;4988;49.238;6.698;2023-04-15T02:47:52;98147.28;;;6.90;89.42
9899;BME280;4988;49.238;6.698;2023-04-15T02:50:18;98147.81;;;6.97;89.47
9899;BME280;4988;49.238;6.698;2023-04-15T02:52:43;98157.63;;;6.95;89.88
9899;BME280;4988;49.238;6.698;2023-04-15T02:55:09;98157.31;;;7.01;89.56
9899;BME280;4988;49.238;6.698;2023-04-15T02:57:35;98155.91;;;7.13;88.73
9899;BME280;4988;49.238;6.698;2023-04-15T03:00:05;98160.25;;;7.14;88.49
9899;BME280;4988;49.238;6.698;2023-04-15T03:02:35;98156.06;;;7.10;88.24
9899;BME280;4988;49.238;6.698;2023-04-15T03:05:01;98163.84;;;7.13;89.01
9899;BME280;4988;49.238;6.698;2023-04-15T03:07:26;98162.91;;;7.14;88.62
9899;BME280;4988;49.238;6.698;2023-04-15T03:09:51;98168.69;;;7.22;87.94
9899;BME280;4988;49.238;6.698;2023-04-15T03:12:17;98166.06;;;7.22;87.08
9899;BME280;4988;49.238;6.698;2023-04-15T03:14:42;98170.34;;;7.24;87.27
9899;BME280;4988;49.238;6.698;2023-04-15T03:17:07;98164.13;;;7.26;87.77
9899;BME280;4988;49.238;6.698;2023-04-15T03:19:33;98158.09;;;7.22;88.23
9899;BME280;4988;49.238;6.698;2023-04-15T03:21:58;98164.63;;;7.15;88.32
9899;BME280;4988;49.238;6.698;2023-04-15T03:24:23;98167.56;;;7.08;88.02
9899;BME280;4988;49.238;6.698;2023-04-15T03:26:49;98167.50;;;7.10;88.11
9899;BME280;4988;49.238;6.698;2023-04-15T03:29:14;98162.13;;;7.12;87.96
9899;BME280;4988;49.238;6.698;2023-04-15T03:31:40;98168.34;;;7.11;88.42
9899;BME280;4988;49.238;6.698;2023-04-15T03:34:05;98171.78;;;7.13;87.97
9899;BME280;4988;49.238;6.698;2023-04-15T03:36:31;98167.41;;;7.12;88.15
9899;BME280;4988;49.238;6.698;2023-04-15T03:38:57;98163.53;;;7.19;87.89
9899;BME280;4988;49.238;6.698;2023-04-15T03:41:23;98165.38;;;7.17;87.98
9899;BME280;4988;49.238;6.698;2023-04-15T03:43:48;98161.81;;;7.18;87.41
9899;BME280;4988;49.238;6.698;2023-04-15T03:46:16;98161.59;;;7.22;87.25
9899;BME280;4988;49.238;6.698;2023-04-15T03:48:41;98168.00;;;7.18;87.48
9899;BME280;4988;49.238;6.698;2023-04-15T03:51:07;98164.53;;;7.16;86.52
9899;BME280;4988;49.238;6.698;2023-04-15T03:53:32;98169.00;;;7.16;86.71
9899;BME280;4988;49.238;6.698;2023-04-15T03:55:57;98162.59;;;7.20;86.55
9899;BME280;4988;49.238;6.698;2023-04-15T03:58:23;98169.53;;;7.22;86.39
9899;BME280;4988;49.238;6.698;2023-04-15T04:00:48;98163.53;;;7.19;86.33
9899;BME280;4988;49.238;6.698;2023-04-15T04:03:13;98167.09;;;7.18;86.02
9899;BME280;4988;49.238;6.698;2023-04-15T04:05:39;98168.00;;;7.18;86.33
9899;BME280;4988;49.238;6.698;2023-04-15T04:08:05;98176.13;;;7.14;86.82
9899;BME280;4988;49.238;6.698;2023-04-15T04:10:31;98178.56;;;7.18;86.18
9899;BME280;4988;49.238;6.698;2023-04-15T04:12:56;98187.34;;;7.19;86.14
9899;BME280;4988;49.238;6.698;2023-04-15T04:15:22;98186.56;;;7.17;86.20
9899;BME280;4988;49.238;6.698;2023-04-15T04:17:47;98181.69;;;7.27;85.92
9899;BME280;4988;49.238;6.698;2023-04-15T04:20:12;98178.81;;;7.31;85.22
9899;BME280;4988;49.238;6.698;2023-04-15T04:22:38;98183.97;;;7.34;85.07
9899;BME280;4988;49.238;6.698;2023-04-15T04:25:05;98189.41;;;7.31;85.12
9899;BME280;4988;49.238;6.698;2023-04-15T04:27:31;98187.94;;;7.26;85.53
9899;BME280;4988;49.238;6.698;2023-04-15T04:29:56;98190.44;;;7.29;85.87
9899;BME280;4988;49.238;6.698;2023-04-15T04:32:21;98185.22;;;7.27;85.34
9899;BME280;4988;49.238;6.698;2023-04-15T04:34:47;98187.84;;;7.27;86.12
9899;BME280;4988;49.238;6.698;2023-04-15T04:37:12;98191.66;;;7.21;86.00
9899;BME280;4988;49.238;6.698;2023-04-15T04:39:38;98196.00;;;7.22;86.25
9899;BME280;4988;49.238;6.698;2023-04-15T04:42:03;98191.28;;;6.91;88.65
9899;BME280;4988;49.238;6.698;2023-04-15T04:44:29;98202.88;;;6.69;90.35
9899;BME280;4988;49.238;6.698;2023-04-15T04:46:54;98204.72;;;6.67;91.06
9899;BME280;4988;49.238;6.698;2023-04-15T04:49:19;98203.00;;;6.66;90.44
9899;BME280;4988;49.238;6.698;2023-04-15T04:51:45;98197.59;;;6.69;91.41
9899;BME280;4988;49.238;6.698;2023-04-15T04:54:11;98195.75;;;6.71;91.85
9899;BME280;4988;49.238;6.698;2023-04-15T04:56:36;98197.72;;;6.66;91.09
9899;BME280;4988;49.238;6.698;2023-04-15T04:59:03;98184.69;;;6.42;92.51
9899;BME280;4988;49.238;6.698;2023-04-15T05:01:29;98195.69;;;6.33;93.45
9899;BME280;4988;49.238;6.698;2023-04-15T05:03:54;98195.34;;;6.20;94.30
9899;BME280;4988;49.238;6.698;2023-04-15T05:06:20;98206.09;;;6.16;94.48
9899;BME280;4988;49.238;6.698;2023-04-15T05:08:45;98198.19;;;6.16;95.08
9899;BME280;4988;49.238;6.698;2023-04-15T05:11:11;98200.91;;;6.14;95.27
9899;BME280;4988;49.238;6.698;2023-04-15T05:13:37;98209.81;;;6.11;95.68
9899;BME280;4988;49.238;6.698;2023-04-15T05:16:05;98214.56;;;6.24;95.08
9899;BME280;4988;49.238;6.698;2023-04-15T05:18:31;98218.97;;;6.44;94.82
9899;BME280;4988;49.238;6.698;2023-04-15T05:20:57;98211.44;;;6.55;94.35
9899;BME280;4988;49.238;6.698;2023-04-15T05:23:23;98209.25;;;6.65;94.39
9899;BME280;4988;49.238;6.698;2023-04-15T05:25:48;98208.72;;;6.76;93.70
9899;BME280;4988;49.238;6.698;2023-04-15T05:28:13;98220.63;;;6.86;92.31
9899;BME280;4988;49.238;6.698;2023-04-15T05:30:39;98213.53;;;6.87;92.67
9899;BME280;4988;49.238;6.698;2023-04-15T05:33:04;98218.47;;;6.95;92.49
9899;BME280;4988;49.238;6.698;2023-04-15T05:35:30;98215.19;;;7.08;91.31
9899;BME280;4988;49.238;6.698;2023-04-15T05:37:55;98220.50;;;7.08;92.00
9899;BME280;4988;49.238;6.698;2023-04-15T05:40:21;98212.06;;;7.19;91.43
9899;BME280;4988;49.238;6.698;2023-04-15T05:42:46;98212.75;;;7.23;90.65
9899;BME280;4988;49.238;6.698;2023-04-15T05:45:11;98217.91;;;7.26;90.47
9899;BME280;4988;49.238;6.698;2023-04-15T05:47:37;98214.13;;;7.32;89.85
9899;BME280;4988;49.238;6.698;2023-04-15T05:50:03;98210.28;;;7.37;89.82
9899;BME280;4988;49.238;6.698;2023-04-15T05:52:30;98211.00;;;7.41;89.65
9899;BME280;4988;49.238;6.698;2023-04-15T05:54:55;98208.28;;;7.43;88.97
9899;BME280;4988;49.238;6.698;2023-04-15T05:57:20;98213.28;;;7.49;88.47
9899;BME280;4988;49.238;6.698;2023-04-15T05:59:46;98213.47;;;7.63;87.03
9899;BME280;4988;49.238;6.698;2023-04-15T06:02:11;98207.06;;;7.67;85.83
9899;BME280;4988;49.238;6.698;2023-04-15T06:04:37;98215.69;;;7.72;86.09
9899;BME280;4988;49.238;6.698;2023-04-15T06:07:03;98218.06;;;7.77;84.71
9899;BME280;4988;49.238;6.698;2023-04-15T06:09:28;98221.81;;;7.73;84.88
9899;BME280;4988;49.238;6.698;2023-04-15T06:11:54;98225.31;;;7.73;84.85
9899;BME280;4988;49.238;6.698;2023-04-15T06:14:21;98231.41;;;7.76;85.22
9899;BME280;4988;49.238;6.698;2023-04-15T06:16:46;98229.31;;;7.82;85.91
9899;BME280;4988;49.238;6.698;2023-04-15T06:19:11;98231.72;;;7.87;85.27
9899;BME280;4988;49.238;6.698;2023-04-15T06:21:38;98236.25;;;7.85;85.26
9899;BME280;4988;49.238;6.698;2023-04-15T06:24:04;98236.09;;;7.88;85.70
9899;BME280;4988;49.238;6.698;2023-04-15T06:26:29;98242.81;;;7.95;85.11
9899;BME280;4988;49.238;6.698;2023-04-15T06:28:55;98236.19;;;8.04;86.85
9899;BME280;4988;49.238;6.698;2023-04-15T06:31:21;98239.53;;;8.08;87.02
9899;BME280;4988;49.238;6.698;2023-04-15T06:33:46;98242.66;;;8.16;84.83
9899;BME280;4988;49.238;6.698;2023-04-15T06:36:11;98241.56;;;8.20;83.77
9899;BME280;4988;49.238;6.698;2023-04-15T06:38:37;98243.28;;;8.21;82.72
9899;BME280;4988;49.238;6.698;2023-04-15T06:41:03;98239.69;;;8.22;82.67
9899;BME280;4988;49.238;6.698;2023-04-15T06:43:28;98239.69;;;8.22;82.45
9899;BME280;4988;49.238;6.698;2023-04-15T06:45:54;98238.50;;;8.28;81.76
9899;BME280;4988;49.238;6.698;2023-04-15T06:48:20;98238.88;;;8.37;80.62
9899;BME280;4988;49.238;6.698;2023-04-15T06:50:46;98248.22;;;8.46;80.43
9899;BME280;4988;49.238;6.698;2023-04-15T06:53:11;98246.09;;;8.53;80.07
9899;BME280;4988;49.238;6.698;2023-04-15T06:55:52;98253.91;;;8.56;79.69
9899;BME280;4988;49.238;6.698;2023-04-15T06:58:17;98261.47;;;8.64;78.47
9899;BME280;4988;49.238;6.698;2023-04-15T07:00:42;98255.97;;;8.67;77.66
9899;BME280;4988;49.238;6.698;2023-04-15T07:03:08;98250.63;;;8.68;77.63
9899;BME280;4988;49.238;6.698;2023-04-15T07:05:35;98261.22;;;8.68;77.97
9899;BME280;4988;49.238;6.698;2023-04-15T07:08:00;98265.94;;;8.79;78.53
9899;BME280;4988;49.238;6.698;2023-04-15T07:10:28;98264.41;;;8.75;78.59
9899;BME280;4988;49.238;6.698;2023-04-15T07:12:55;98266.72;;;8.81;78.52
9899;BME280;4988;49.238;6.698;2023-04-15T07:15:21;98268.22;;;8.87;78.61
9899;BME280;4988;49.238;6.698;2023-04-15T07:17:49;98271.56;;;8.91;77.65
9899;BME280;4988;49.238;6.698;2023-04-15T07:20:15;98272.25;;;8.94;76.68
9899;BME280;4988;49.238;6.698;2023-04-15T07:22:40;98274.13;;;8.92;75.27
9899;BME280;4988;49.238;6.698;2023-04-15T07:25:06;98270.22;;;8.82;74.50
9899;BME280;4988;49.238;6.698;2023-04-15T07:27:32;98280.69;;;8.85;75.22
9899;BME280;4988;49.238;6.698;2023-04-15T07:29:57;98283.63;;;8.96;75.47
9899;BME280;4988;49.238;6.698;2023-04-15T07:32:28;98284.50;;;8.97;76.07
9899;BME280;4988;49.238;6.698;2023-04-15T07:34:53;98286.72;;;9.05;75.38
9899;BME280;4988;49.238;6.698;2023-04-15T07:37:19;98290.94;;;9.09;75.38
9899;BME280;4988;49.238;6.698;2023-04-15T07:39:45;98289.28;;;9.06;75.64
9899;BME280;4988;49.238;6.698;2023-04-15T07:42:11;98293.34;;;9.13;75.13
9899;BME280;4988;49.238;6.698;2023-04-15T07:44:36;98298.41;;;9.18;75.34
9899;BME280;4988;49.238;6.698;2023-04-15T07:47:02;98293.84;;;9.20;74.23
9899;BME280;4988;49.238;6.698;2023-04-15T07:49:28;98297.91;;;9.27;73.36
9899;BME280;4988;49.238;6.698;2023-04-15T07:51:53;98297.56;;;9.33;73.55
9899;BME280;4988;49.238;6.698;2023-04-15T07:54:20;98298.78;;;9.44;71.61
9899;BME280;4988;49.238;6.698;2023-04-15T07:56:46;98300.16;;;9.51;68.47
9899;BME280;4988;49.238;6.698;2023-04-15T07:59:11;98297.06;;;9.59;66.87
9899;BME280;4988;49.238;6.698;2023-04-15T08:01:37;98302.38;;;9.75;67.63
9899;BME280;4988;49.238;6.698;2023-04-15T08:04:03;98306.47;;;9.80;66.75
9899;BME280;4988;49.238;6.698;2023-04-15T08:06:28;98297.75;;;9.94;66.03
9899;BME280;4988;49.238;6.698;2023-04-15T08:08:54;98299.09;;;10.02;66.41
9899;BME280;4988;49.238;6.698;2023-04-15T08:11:20;98303.88;;;10.11;65.81
9899;BME280;4988;49.238;6.698;2023-04-15T08:13:46;98310.56;;;10.18;64.68
9899;BME280;4988;49.238;6.698;2023-04-15T08:16:21;98302.81;;;10.29;61.11
9899;BME280;4988;49.238;6.698;2023-04-15T08:18:48;98306.75;;;10.38;61.83
9899;BME280;4988;49.238;6.698;2023-04-15T08:21:14;98307.59;;;10.55;62.56
9899;BME280;4988;49.238;6.698;2023-04-15T08:23:40;98308.34;;;10.71;61.10
9899;BME280;4988;49.238;6.698;2023-04-15T08:26:05;98314.34;;;10.75;61.32
9899;BME280;4988;49.238;6.698;2023-04-15T08:28:31;98318.19;;;10.85;59.37
9899;BME280;4988;49.238;6.698;2023-04-15T08:30:57;98317.06;;;10.89;58.17
9899;BME280;4988;49.238;6.698;2023-04-15T08:33:22;98321.41;;;11.05;57.62
9899;BME280;4988;49.238;6.698;2023-04-15T08:35:48;98324.88;;;11.21;58.41
9899;BME280;4988;49.238;6.698;2023-04-15T08:38:14;98317.44;;;11.41;59.24
9899;BME280;4988;49.238;6.698;2023-04-15T08:40:48;98327.03;;;11.58;59.61
9899;BME280;4988;49.238;6.698;2023-04-15T08:43:26;98327.66;;;11.76;58.07
9899;BME280;4988;49.238;6.698;2023-04-15T08:45:53;98325.47;;;11.83;58.05
9899;BME280;4988;49.238;6.698;2023-04-15T08:48:20;98323.75;;;11.96;58.01
9899;BME280;4988;49.238;6.698;2023-04-15T08:50:46;98325.50;;;12.10;57.58
9899;BME280;4988;49.238;6.698;2023-04-15T08:53:12;98321.81;;;12.26;59.02
9899;BME280;4988;49.238;6.698;2023-04-15T08:55:44;98323.28;;;12.44;59.11
9899;BME280;4988;49.238;6.698;2023-04-15T08:58:11;98325.44;;;12.65;56.37
9899;BME280;4988;49.238;6.698;2023-04-15T09:00:36;98325.16;;;12.82;57.13
9899;BME280;4988;49.238;6.698;2023-04-15T09:03:04;98324.31;;;12.95;56.98
9899;BME280;4988;49.238;6.698;2023-04-15T09:05:37;98328.38;;;13.13;56.73
9899;BME280;4988;49.238;6.698;2023-04-15T09:08:03;98332.09;;;13.24;54.64
9899;BME280;4988;49.238;6.698;2023-04-15T09:10:30;98321.41;;;13.37;54.19
9899;BME280;4988;49.238;6.698;2023-04-15T09:12:56;98324.19;;;13.35;54.96
9899;BME280;4988;49.238;6.698;2023-04-15T09:15:24;98333.63;;;13.41;55.72
9899;BME280;4988;49.238;6.698;2023-04-15T09:17:49;98328.03;;;13.57;53.74
9899;BME280;4988;49.238;6.698;2023-04-15T09:20:16;98331.56;;;13.57;51.94
9899;BME280;4988;49.238;6.698;2023-04-15T09:22:45;98326.84;;;13.61;55.90
9899;BME280;4988;49.238;6.698;2023-04-15T09:27:58;98341.50;;;13.68;50.46
9899;BME280;4988;49.238;6.698;2023-04-15T09:30:24;98344.16;;;13.68;51.40
9899;BME280;4988;49.238;6.698;2023-04-15T09:32:57;98340.84;;;13.77;51.02
9899;BME280;4988;49.238;6.698;2023-04-15T09:35:23;98337.16;;;13.91;50.00
9899;BME280;4988;49.238;6.698;2023-04-15T09:37:50;98347.81;;;14.04;51.01
9899;BME280;4988;49.238;6.698;2023-04-15T09:40:38;98327.38;;;14.03;49.70
9899;BME280;4988;49.238;6.698;2023-04-15T09:43:04;98341.66;;;13.91;51.54
9899;BME280;4988;49.238;6.698;2023-04-15T09:45:31;98339.50;;;13.96;50.48
9899;BME280;4988;49.238;6.698;2023-04-15T09:47:58;98340.31;;;14.09;50.54
9899;BME280;4988;49.238;6.698;2023-04-15T09:50:28;98341.00;;;14.24;50.80
9899;BME280;4988;49.238;6.698;2023-04-15T09:52:54;98350.38;;;14.30;49.49
9899;BME280;4988;49.238;6.698;2023-04-15T09:55:20;98352.38;;;14.39;48.53
9899;BME280;4988;49.238;6.698;2023-04-15T09:57:46;98344.34;;;14.39;46.91
9899;BME280;4988;49.238;6.698;2023-04-15T10:00:12;98342.50;;;14.40;48.12
9899;BME280;4988;49.238;6.698;2023-04-15T10:02:41;98353.38;;;14.50;48.05
9899;BME280;4988;49.238;6.698;2023-04-15T10:05:09;98357.19;;;14.58;45.88
9899;BME280;4988;49.238;6.698;2023-04-15T10:07:37;98354.97;;;14.65;44.05
9899;BME280;4988;49.238;6.698;2023-04-15T10:10:05;98360.00;;;14.57;41.65
9899;BME280;4988;49.238;6.698;2023-04-15T10:12:31;98357.50;;;14.42;41.26
9899;BME280;4988;49.238;6.698;2023-04-15T10:14:59;98366.56;;;14.28;39.44
9899;BME280;4988;49.238;6.698;2023-04-15T10:17:29;98366.38;;;14.19;39.04
9899;BME280;4988;49.238;6.698;2023-04-15T10:20:00;98363.84;;;14.04;38.88
9899;BME280;4988;49.238;6.698;2023-04-15T10:22:26;98369.16;;;13.93;39.17
9899;BME280;4988;49.238;6.698;2023-04-15T10:24:52;98367.66;;;13.89;39.83
9899;BME280;4988;49.238;6.698;2023-04-15T10:27:17;98370.97;;;13.92;39.78
9899;BME280;4988;49.238;6.698;2023-04-15T10:29:44;98375.09;;;14.09;36.98
9899;BME280;4988;49.238;6.698;2023-04-15T10:32:10;98372.03;;;14.27;36.86
9899;BME280;4988;49.238;6.698;2023-04-15T10:34:36;98374.44;;;14.43;37.74
9899;BME280;4988;49.238;6.698;2023-04-15T10:37:03;98378.28;;;14.63;38.53
9899;BME280;4988;49.238;6.698;2023-04-15T10:39:43;98388.50;;;14.82;36.27
9899;BME280;4988;49.238;6.698;2023-04-15T10:42:14;98374.66;;;15.00;37.14
9899;BME280;4988;49.238;6.698;2023-04-15T10:44:47;98378.75;;;15.17;35.64
9899;BME280;4988;49.238;6.698;2023-04-15T10:47:15;98371.44;;;15.30;35.32
9899;BME280;4988;49.238;6.698;2023-04-15T10:49:56;98374.88;;;15.43;36.04
9899;BME280;4988;49.238;6.698;2023-04-15T10:52:24;98381.69;;;15.59;35.75
9899;BME280;4988;49.238;6.698;2023-04-15T10:57:37;98376.94;;;15.74;36.32
9899;BME280;4988;49.238;6.698;2023-04-15T11:00:17;98383.44;;;15.83;36.24
9899;BME280;4988;49.238;6.698;2023-04-15T11:02:51;98384.91;;;15.87;35.53
9899;BME280;4988;49.238;6.698;2023-04-15T11:05:17;98389.75;;;15.82;35.14
9899;BME280;4988;49.238;6.698;2023-04-15T11:13:14;98389.31;;;15.88;34.90
9899;BME280;4988;49.238;6.698;2023-04-15T11:15:47;98391.00;;;16.00;35.69
9899;BME280;4988;49.238;6.698;2023-04-15T11:18:29;98402.47;;;16.14;36.43
9899;BME280;4988;49.238;6.698;2023-04-15T11:20:57;98394.75;;;16.20;36.30
9899;BME280;4988;49.238;6.698;2023-04-15T11:23:35;98398.28;;;16.32;36.60
9899;BME280;4988;49.238;6.698;2023-04-15T11:26:03;98387.63;;;16.42;36.01
9899;BME280;4988;49.238;6.698;2023-04-15T11:28:31;98393.13;;;16.29;35.67
9899;BME280;4988;49.238;6.698;2023-04-15T11:30:57;98400.00;;;16.11;35.86
9899;BME280;4988;49.238;6.698;2023-04-15T11:33:23;98414.16;;;16.01;36.29
9899;BME280;4988;49.238;6.698;2023-04-15T11:35:51;98408.56;;;15.82;36.44
9899;BME280;4988;49.238;6.698;2023-04-15T11:38:18;98418.53;;;15.80;37.94
9899;BME280;4988;49.238;6.698;2023-04-15T11:40:44;98410.50;;;15.91;37.40
9899;BME280;4988;49.238;6.698;2023-04-15T11:43:11;98425.91;;;16.00;35.18
9899;BME280;4988;49.238;6.698;2023-04-15T11:45:47;98417.72;;;16.02;35.69
9899;BME280;4988;49.238;6.698;2023-04-15T11:48:12;98418.56;;;16.02;35.67
9899;BME280;4988;49.238;6.698;2023-04-15T11:50:38;98421.03;;;15.94;37.05
9899;BME280;4988;49.238;6.698;2023-04-15T11:53:09;98424.19;;;15.99;37.18
9899;BME280;4988;49.238;6.698;2023-04-15T11:55:45;98424.66;;;16.16;36.55
9899;BME280;4988;49.238;6.698;2023-04-15T12:00:59;98439.66;;;16.18;36.86
9899;BME280;4988;49.238;6.698;2023-04-15T12:03:35;98430.78;;;16.06;36.12
9899;BME280;4988;49.238;6.698;2023-04-15T12:16:45;98462.94;;;15.72;37.79
9899;BME280;4988;49.238;6.698;2023-04-15T12:19:15;98462.94;;;15.72;37.57
9899;BME280;4988;49.238;6.698;2023-04-15T12:21:44;98466.84;;;15.80;36.93
9899;BME280;4988;49.238;6.698;2023-04-15T12:24:11;98470.31;;;15.93;36.21
9899;BME280;4988;49.238;6.698;2023-04-15T12:26:49;98471.16;;;16.05;37.30
9899;BME280;4988;49.238;6.698;2023-04-15T12:29:16;98471.28;;;16.15;36.41
9899;BME280;4988;49.238;6.698;2023-04-15T12:32:03;98470.53;;;16.24;35.89
9899;BME280;4988;49.238;6.698;2023-04-15T12:34:30;98466.88;;;16.36;34.53
9899;BME280;4988;49.238;6.698;2023-04-15T12:36:57;98475.75;;;16.60;34.15
9899;BME280;4988;49.238;6.698;2023-04-15T12:39:24;98478.50;;;16.81;33.36
9899;BME280;4988;49.238;6.698;2023-04-15T12:41:50;98489.56;;;16.87;33.43
9899;BME280;4988;49.238;6.698;2023-04-15T12:44:16;98487.31;;;16.71;32.30
9899;BME280;4988;49.238;6.698;2023-04-15T12:46:41;98493.59;;;16.61;32.70
9899;BME280;4988;49.238;6.698;2023-04-15T12:49:08;98488.72;;;16.54;33.06
9899;BME280;4988;49.238;6.698;2023-04-15T12:51:33;98493.09;;;16.44;34.35
9899;BME280;4988;49.238;6.698;2023-04-15T12:53:59;98507.63;;;16.42;36.60
9899;BME280;4988;49.238;6.698;2023-04-15T12:56:24;98501.53;;;16.39;36.74
9899;BME280;4988;49.238;6.698;2023-04-15T12:58:51;98513.97;;;16.40;37.99
9899;BME280;4988;49.238;6.698;2023-04-15T13:01:16;98512.88;;;16.54;38.27
9899;BME280;4988;49.238;6.698;2023-04-15T13:03:41;98519.59;;;16.60;37.66
9899;BME280;4988;49.238;6.698;2023-04-15T13:06:07;98515.81;;;16.51;36.68
9899;BME280;4988;49.238;6.698;2023-04-15T13:08:32;98522.91;;;16.52;37.76
9899;BME280;4988;49.238;6.698;2023-04-15T13:10:58;98530.22;;;16.39;35.53
9899;BME280;4988;49.238;6.698;2023-04-15T13:13:23;98529.38;;;16.38;35.86
9899;BME280;4988;49.238;6.698;2023-04-15T13:15:49;98533.03;;;16.49;36.59
9899;BME280;4988;49.238;6.698;2023-04-15T13:18:14;98532.53;;;16.55;36.25
9899;BME280;4988;49.238;6.698;2023-04-15T13:20:40;98546.44;;;16.60;37.87
9899;BME280;4988;49.238;6.698;2023-04-15T13:23:06;98533.38;;;16.55;37.21
9899;BME280;4988;49.238;6.698;2023-04-15T13:25:31;98537.69;;;16.58;38.26
9899;BME280;4988;49.238;6.698;2023-04-15T13:27:56;98545.22;;;16.53;37.76
9899;BME280;4988;49.238;6.698;2023-04-15T13:30:22;98542.69;;;16.51;37.01
9899;BME280;4988;49.238;6.698;2023-04-15T13:32:48;98535.84;;;16.47;36.28
9899;BME280;4988;49.238;6.698;2023-04-15T13:35:15;98549.66;;;16.43;36.01
9899;BME280;4988;49.238;6.698;2023-04-15T13:37:40;98542.53;;;16.53;36.29
9899;BME280;4988;49.238;6.698;2023-04-15T13:40:06;98560.84;;;16.59;35.71
9899;BME280;4988;49.238;6.698;2023-04-15T13:42:32;98561.97;;;16.45;35.78
9899;BME280;4988;49.238;6.698;2023-04-15T13:44:57;98561.50;;;16.29;35.01
9899;BME280;4988;49.238;6.698;2023-04-15T13:47:22;98564.31;;;16.38;34.37
9899;BME280;4988;49.238;6.698;2023-04-15T13:49:48;98570.78;;;16.59;34.45